Angola, IN

4:21 PM EST on February 06, 2016 (GMT -0500)
Angola (Northwood Subdivision) | | Change Station
CLOSE
Current Station
Personal Weather Station
Location: Angola, IN
Elevation: 1030 ft
Nearby Weather Stations

Elev 1030 ft 41.66 °N, 85.02 °W | Updated 47 seconds ago

Clear
Clear
37.3 °F
Feels Like 37 °F
N
1.0
Wind Variable Wind from SW
Gusts 3.0 mph

Today
High -- | Low -- °F
--% Chance of Precip.
Yesterday
High -- | Low -- °F
Precip. -- in
Pressure 30.17 in
Visibility 10.0 miles
Clouds Scattered Clouds 5000 ft
Windchill 37 °F
Dew Point 23 °F
Humidity 56%
Rainfall 0.00 in
Snow Depth Not available.
7:47 AM 6:01 PM
Waning Crescent, 4% visible
METAR KOEB 062115Z AUTO 24008KT 10SM SCT050 03/M06 A3017 RMK AO2 T00251060
Pressure 30.17 in
Visibility 10.0 miles
Clouds Scattered Clouds 5000 ft
Windchill 37 °F
Dew Point 23 °F
Humidity 56%
Rainfall 0.00 in
Snow Depth Not available.
7:47 AM 6:01 PM
Waning Crescent, 4% visible
METAR KOEB 062115Z AUTO 24008KT 10SM SCT050 03/M06 A3017 RMK AO2 T00251060

10-Day Weather Forecast

Almanac

Astronomy

Feb. 06, 2016 Rise Set
Actual Time
Civil Twilight
Nautical Twilight
Astronomical Twilight
Moon
Length of Visible Light
Length of Day
Tomorrow will be .
, % of the Moon is Illuminated

Today's Extremes

State Highs State Lows

Community

WunderPhotos

Upload Photos

1,891,050 photos uploaded!

WunderBlog® & News

Nearby

Air Quality

  Air Quality AQ Index Pollutant
Not available.

Snow Depth

Station Depth Elevation

Earthquake Activity

City Distance Mag. Time & Date
Minimum magnitude displayed is 2.5.

Coastal Water Temperatures

Place Temperature

Stations

Nearby Weather Stations

Station Location Temp. Windchill Dew Point Humidity Wind Precip. Elev Updated Type
                   

Watches & Warnings

There are currently no watches in effect.